sensor_id;sensor_type;location;lat;lon;timestamp;P1;durP1;ratioP1;P2;durP2;ratioP2
48623;SDS011;34422;45.802;16.114;2022-07-21T00:01:12;7.65;;;3.95;;
48623;SDS011;34422;45.802;16.114;2022-07-21T00:03:39;8.82;;;3.42;;
48623;SDS011;34422;45.802;16.114;2022-07-21T00:06:06;5.85;;;3.45;;
48623;SDS011;34422;45.802;16.114;2022-07-21T00:08:33;6.55;;;3.63;;
48623;SDS011;34422;45.802;16.114;2022-07-21T00:11:00;7.07;;;3.40;;
48623;SDS011;34422;45.802;16.114;2022-07-21T00:13:27;8.02;;;3.50;;
48623;SDS011;34422;45.802;16.114;2022-07-21T00:15:54;7.07;;;3.88;;
48623;SDS011;34422;45.802;16.114;2022-07-21T00:18:20;8.93;;;4.68;;
48623;SDS011;34422;45.802;16.114;2022-07-21T00:20:47;7.82;;;4.63;;
48623;SDS011;34422;45.802;16.114;2022-07-21T00:23:14;8.13;;;4.30;;
48623;SDS011;34422;45.802;16.114;2022-07-21T00:25:41;8.15;;;4.13;;
48623;SDS011;34422;45.802;16.114;2022-07-21T00:28:08;6.13;;;4.15;;
48623;SDS011;34422;45.802;16.114;2022-07-21T00:30:35;8.07;;;5.22;;
48623;SDS011;34422;45.802;16.114;2022-07-21T00:33:01;12.45;;;6.10;;
48623;SDS011;34422;45.802;16.114;2022-07-21T00:35:28;8.23;;;5.35;;
48623;SDS011;34422;45.802;16.114;2022-07-21T00:37:55;9.55;;;6.60;;
48623;SDS011;34422;45.802;16.114;2022-07-21T00:40:22;9.38;;;7.07;;
48623;SDS011;34422;45.802;16.114;2022-07-21T00:42:49;9.15;;;6.05;;
48623;SDS011;34422;45.802;16.114;2022-07-21T00:45:16;12.23;;;9.82;;
48623;SDS011;34422;45.802;16.114;2022-07-21T00:47:42;14.98;;;9.80;;
48623;SDS011;34422;45.802;16.114;2022-07-21T00:50:11;11.38;;;7.68;;
48623;SDS011;34422;45.802;16.114;2022-07-21T00:52:41;12.77;;;10.63;;
48623;SDS011;34422;45.802;16.114;2022-07-21T00:55:10;14.27;;;10.65;;
48623;SDS011;34422;45.802;16.114;2022-07-21T00:57:38;11.17;;;7.60;;
48623;SDS011;34422;45.802;16.114;2022-07-21T01:00:08;9.85;;;5.13;;
48623;SDS011;34422;45.802;16.114;2022-07-21T01:02:37;8.90;;;4.15;;
48623;SDS011;34422;45.802;16.114;2022-07-21T01:05:09;9.98;;;3.72;;
48623;SDS011;34422;45.802;16.114;2022-07-21T01:07:48;11.60;;;4.50;;
48623;SDS011;34422;45.802;16.114;2022-07-21T01:10:18;7.82;;;4.05;;
48623;SDS011;34422;45.802;16.114;2022-07-21T01:12:50;7.30;;;4.18;;
48623;SDS011;34422;45.802;16.114;2022-07-21T01:15:18;7.35;;;3.78;;
48623;SDS011;34422;45.802;16.114;2022-07-21T01:17:46;9.73;;;4.45;;
48623;SDS011;34422;45.802;16.114;2022-07-21T01:20:14;9.00;;;4.60;;
48623;SDS011;34422;45.802;16.114;2022-07-21T01:22:43;6.88;;;3.97;;
48623;SDS011;34422;45.802;16.114;2022-07-21T01:25:12;7.47;;;4.18;;
48623;SDS011;34422;45.802;16.114;2022-07-21T01:27:40;10.35;;;3.97;;
48623;SDS011;34422;45.802;16.114;2022-07-21T01:30:07;11.60;;;4.35;;
48623;SDS011;34422;45.802;16.114;2022-07-21T01:32:36;6.93;;;3.58;;
48623;SDS011;34422;45.802;16.114;2022-07-21T01:35:04;11.27;;;3.97;;
48623;SDS011;34422;45.802;16.114;2022-07-21T01:37:34;6.57;;;3.55;;
48623;SDS011;34422;45.802;16.114;2022-07-21T01:40:04;7.68;;;4.03;;
48623;SDS011;34422;45.802;16.114;2022-07-21T01:42:51;6.40;;;3.42;;
48623;SDS011;34422;45.802;16.114;2022-07-21T01:45:19;5.97;;;3.17;;
48623;SDS011;34422;45.802;16.114;2022-07-21T01:47:46;7.35;;;3.38;;
48623;SDS011;34422;45.802;16.114;2022-07-21T01:50:13;7.82;;;3.05;;
48623;SDS011;34422;45.802;16.114;2022-07-21T01:52:40;7.10;;;3.28;;
48623;SDS011;34422;45.802;16.114;2022-07-21T01:55:07;9.30;;;3.38;;
48623;SDS011;34422;45.802;16.114;2022-07-21T01:57:34;7.90;;;3.72;;
48623;SDS011;34422;45.802;16.114;2022-07-21T02:00:00;9.18;;;3.30;;
48623;SDS011;34422;45.802;16.114;2022-07-21T02:02:27;5.40;;;3.15;;
48623;SDS011;34422;45.802;16.114;2022-07-21T02:04:54;5.97;;;3.42;;
48623;SDS011;34422;45.802;16.114;2022-07-21T02:07:21;9.52;;;3.65;;
48623;SDS011;34422;45.802;16.114;2022-07-21T02:09:47;15.68;;;3.38;;
48623;SDS011;34422;45.802;16.114;2022-07-21T02:12:14;8.40;;;4.03;;
48623;SDS011;34422;45.802;16.114;2022-07-21T02:14:41;11.45;;;3.67;;
48623;SDS011;34422;45.802;16.114;2022-07-21T02:17:09;5.20;;;3.00;;
48623;SDS011;34422;45.802;16.114;2022-07-21T02:19:35;7.57;;;3.63;;
48623;SDS011;34422;45.802;16.114;2022-07-21T02:22:03;6.10;;;3.67;;
48623;SDS011;34422;45.802;16.114;2022-07-21T02:24:29;7.18;;;4.28;;
48623;SDS011;34422;45.802;16.114;2022-07-21T02:26:56;6.72;;;3.78;;
48623;SDS011;34422;45.802;16.114;2022-07-21T02:29:23;9.40;;;4.25;;
48623;SDS011;34422;45.802;16.114;2022-07-21T02:31:50;5.88;;;3.60;;
48623;SDS011;34422;45.802;16.114;2022-07-21T02:34:17;7.00;;;3.70;;
48623;SDS011;34422;45.802;16.114;2022-07-21T02:36:44;9.00;;;3.60;;
48623;SDS011;34422;45.802;16.114;2022-07-21T02:39:11;7.05;;;4.07;;
48623;SDS011;34422;45.802;16.114;2022-07-21T02:41:37;15.38;;;4.57;;
48623;SDS011;34422;45.802;16.114;2022-07-21T02:44:04;7.13;;;3.80;;
48623;SDS011;34422;45.802;16.114;2022-07-21T02:46:31;8.27;;;4.75;;
48623;SDS011;34422;45.802;16.114;2022-07-21T02:48:57;9.40;;;4.90;;
48623;SDS011;34422;45.802;16.114;2022-07-21T02:51:24;8.68;;;4.18;;
48623;SDS011;34422;45.802;16.114;2022-07-21T02:53:51;11.93;;;3.78;;
48623;SDS011;34422;45.802;16.114;2022-07-21T02:56:18;9.25;;;4.35;;
48623;SDS011;34422;45.802;16.114;2022-07-21T02:58:44;7.68;;;4.13;;
48623;SDS011;34422;45.802;16.114;2022-07-21T03:01:11;8.80;;;3.85;;
48623;SDS011;34422;45.802;16.114;2022-07-21T03:03:38;9.07;;;3.67;;
48623;SDS011;34422;45.802;16.114;2022-07-21T03:06:05;6.50;;;3.42;;
48623;SDS011;34422;45.802;16.114;2022-07-21T03:08:32;9.85;;;3.30;;
48623;SDS011;34422;45.802;16.114;2022-07-21T03:10:59;8.27;;;3.78;;
48623;SDS011;34422;45.802;16.114;2022-07-21T03:13:26;6.03;;;3.15;;
48623;SDS011;34422;45.802;16.114;2022-07-21T03:15:53;6.93;;;3.33;;
48623;SDS011;34422;45.802;16.114;2022-07-21T03:18:21;8.38;;;3.58;;
48623;SDS011;34422;45.802;16.114;2022-07-21T03:20:47;7.55;;;3.70;;
48623;SDS011;34422;45.802;16.114;2022-07-21T03:23:14;5.35;;;2.80;;
48623;SDS011;34422;45.802;16.114;2022-07-21T03:25:41;5.35;;;2.97;;
48623;SDS011;34422;45.802;16.114;2022-07-21T03:28:08;6.78;;;3.20;;
48623;SDS011;34422;45.802;16.114;2022-07-21T03:30:35;5.18;;;2.88;;
48623;SDS011;34422;45.802;16.114;2022-07-21T03:33:02;6.90;;;3.75;;
48623;SDS011;34422;45.802;16.114;2022-07-21T03:35:29;8.38;;;3.60;;
48623;SDS011;34422;45.802;16.114;2022-07-21T03:37:57;8.38;;;3.28;;
48623;SDS011;34422;45.802;16.114;2022-07-21T03:40:27;8.27;;;3.60;;
48623;SDS011;34422;45.802;16.114;2022-07-21T03:45:24;7.40;;;3.80;;
48623;SDS011;34422;45.802;16.114;2022-07-21T03:47:52;8.93;;;3.58;;
48623;SDS011;34422;45.802;16.114;2022-07-21T03:50:19;5.88;;;3.58;;
48623;SDS011;34422;45.802;16.114;2022-07-21T03:52:46;10.57;;;4.38;;
48623;SDS011;34422;45.802;16.114;2022-07-21T03:55:13;9.00;;;3.95;;
48623;SDS011;34422;45.802;16.114;2022-07-21T03:57:51;7.55;;;3.88;;
48623;SDS011;34422;45.802;16.114;2022-07-21T04:00:23;6.20;;;3.75;;
48623;SDS011;34422;45.802;16.114;2022-07-21T04:02:59;8.90;;;4.20;;
48623;SDS011;34422;45.802;16.114;2022-07-21T04:05:27;7.47;;;4.05;;
48623;SDS011;34422;45.802;16.114;2022-07-21T04:07:55;6.82;;;3.90;;
48623;SDS011;34422;45.802;16.114;2022-07-21T04:10:24;9.18;;;4.78;;
48623;SDS011;34422;45.802;16.114;2022-07-21T04:12:53;8.93;;;4.47;;
48623;SDS011;34422;45.802;16.114;2022-07-21T04:15:22;9.88;;;4.60;;
48623;SDS011;34422;45.802;16.114;2022-07-21T04:17:49;14.55;;;4.80;;
48623;SDS011;34422;45.802;16.114;2022-07-21T04:20:16;12.30;;;4.90;;
48623;SDS011;34422;45.802;16.114;2022-07-21T04:22:44;16.75;;;5.05;;
48623;SDS011;34422;45.802;16.114;2022-07-21T04:25:12;9.57;;;4.57;;
48623;SDS011;34422;45.802;16.114;2022-07-21T04:27:40;10.30;;;4.35;;
48623;SDS011;34422;45.802;16.114;2022-07-21T04:30:08;13.23;;;5.00;;
48623;SDS011;34422;45.802;16.114;2022-07-21T04:32:38;11.18;;;4.38;;
48623;SDS011;34422;45.802;16.114;2022-07-21T04:35:05;7.20;;;4.30;;
48623;SDS011;34422;45.802;16.114;2022-07-21T04:37:32;10.38;;;4.20;;
48623;SDS011;34422;45.802;16.114;2022-07-21T04:40:00;9.15;;;3.90;;
48623;SDS011;34422;45.802;16.114;2022-07-21T04:42:27;8.00;;;4.68;;
48623;SDS011;34422;45.802;16.114;2022-07-21T04:44:54;9.65;;;3.97;;
48623;SDS011;34422;45.802;16.114;2022-07-21T04:47:21;10.13;;;4.85;;
48623;SDS011;34422;45.802;16.114;2022-07-21T04:49:48;9.23;;;4.10;;
48623;SDS011;34422;45.802;16.114;2022-07-21T04:52:15;7.38;;;3.90;;
48623;SDS011;34422;45.802;16.114;2022-07-21T04:54:41;7.30;;;4.38;;
48623;SDS011;34422;45.802;16.114;2022-07-21T04:57:09;9.65;;;4.40;;
48623;SDS011;34422;45.802;16.114;2022-07-21T04:59:36;8.68;;;4.07;;
48623;SDS011;34422;45.802;16.114;2022-07-21T05:02:03;15.10;;;5.00;;
48623;SDS011;34422;45.802;16.114;2022-07-21T05:04:29;9.95;;;4.55;;
48623;SDS011;34422;45.802;16.114;2022-07-21T05:06:56;12.98;;;4.72;;
48623;SDS011;34422;45.802;16.114;2022-07-21T05:09:23;7.05;;;4.00;;
48623;SDS011;34422;45.802;16.114;2022-07-21T05:11:50;9.88;;;3.85;;
48623;SDS011;34422;45.802;16.114;2022-07-21T05:14:18;10.32;;;4.65;;
48623;SDS011;34422;45.802;16.114;2022-07-21T05:16:45;9.10;;;4.10;;
48623;SDS011;34422;45.802;16.114;2022-07-21T05:19:12;8.60;;;4.32;;
48623;SDS011;34422;45.802;16.114;2022-07-21T05:21:39;10.57;;;4.82;;
48623;SDS011;34422;45.802;16.114;2022-07-21T05:24:05;9.20;;;5.07;;
48623;SDS011;34422;45.802;16.114;2022-07-21T05:26:32;8.95;;;4.90;;
48623;SDS011;34422;45.802;16.114;2022-07-21T05:28:59;7.43;;;4.30;;
48623;SDS011;34422;45.802;16.114;2022-07-21T05:31:26;6.30;;;3.78;;
48623;SDS011;34422;45.802;16.114;2022-07-21T05:33:52;7.47;;;3.90;;
48623;SDS011;34422;45.802;16.114;2022-07-21T05:36:19;8.98;;;4.13;;
48623;SDS011;34422;45.802;16.114;2022-07-21T05:38:46;10.80;;;5.03;;
48623;SDS011;34422;45.802;16.114;2022-07-21T05:41:13;8.65;;;4.72;;
48623;SDS011;34422;45.802;16.114;2022-07-21T05:43:40;10.75;;;4.80;;
48623;SDS011;34422;45.802;16.114;2022-07-21T05:46:06;7.20;;;4.50;;
48623;SDS011;34422;45.802;16.114;2022-07-21T05:48:33;10.88;;;4.75;;
48623;SDS011;34422;45.802;16.114;2022-07-21T05:51:00;9.75;;;4.25;;
48623;SDS011;34422;45.802;16.114;2022-07-21T05:53:27;12.02;;;5.20;;
48623;SDS011;34422;45.802;16.114;2022-07-21T05:55:53;13.55;;;5.22;;
48623;SDS011;34422;45.802;16.114;2022-07-21T05:58:20;8.93;;;4.50;;
48623;SDS011;34422;45.802;16.114;2022-07-21T06:00:50;11.20;;;4.82;;
48623;SDS011;34422;45.802;16.114;2022-07-21T06:03:36;11.48;;;3.90;;
48623;SDS011;34422;45.802;16.114;2022-07-21T06:06:04;8.05;;;3.85;;
48623;SDS011;34422;45.802;16.114;2022-07-21T06:08:31;10.88;;;4.05;;
48623;SDS011;34422;45.802;16.114;2022-07-21T06:10:58;8.52;;;3.40;;
48623;SDS011;34422;45.802;16.114;2022-07-21T06:13:25;8.90;;;3.58;;
48623;SDS011;34422;45.802;16.114;2022-07-21T06:15:52;5.95;;;3.80;;
48623;SDS011;34422;45.802;16.114;2022-07-21T06:18:18;7.30;;;3.80;;
48623;SDS011;34422;45.802;16.114;2022-07-21T06:20:45;10.45;;;4.10;;
48623;SDS011;34422;45.802;16.114;2022-07-21T06:23:12;8.57;;;4.13;;
48623;SDS011;34422;45.802;16.114;2022-07-21T06:25:38;8.07;;;3.47;;
48623;SDS011;34422;45.802;16.114;2022-07-21T06:28:06;9.50;;;4.07;;
48623;SDS011;34422;45.802;16.114;2022-07-21T06:30:33;14.55;;;3.72;;
48623;SDS011;34422;45.802;16.114;2022-07-21T06:33:00;7.97;;;3.83;;
48623;SDS011;34422;45.802;16.114;2022-07-21T06:35:27;8.05;;;3.22;;
48623;SDS011;34422;45.802;16.114;2022-07-21T06:37:53;8.07;;;3.47;;
48623;SDS011;34422;45.802;16.114;2022-07-21T06:40:20;9.73;;;3.70;;
48623;SDS011;34422;45.802;16.114;2022-07-21T06:42:47;7.90;;;3.58;;
48623;SDS011;34422;45.802;16.114;2022-07-21T06:45:14;8.45;;;3.50;;
48623;SDS011;34422;45.802;16.114;2022-07-21T06:47:41;9.48;;;3.60;;
48623;SDS011;34422;45.802;16.114;2022-07-21T06:50:08;9.93;;;3.63;;
48623;SDS011;34422;45.802;16.114;2022-07-21T06:52:36;6.93;;;3.28;;
48623;SDS011;34422;45.802;16.114;2022-07-21T06:55:04;9.38;;;4.10;;
48623;SDS011;34422;45.802;16.114;2022-07-21T06:57:34;7.97;;;3.70;;
48623;SDS011;34422;45.802;16.114;2022-07-21T07:00:05;9.57;;;3.92;;
48623;SDS011;34422;45.802;16.114;2022-07-21T07:02:34;9.70;;;3.83;;
48623;SDS011;34422;45.802;16.114;2022-07-21T07:05:01;9.93;;;3.35;;
48623;SDS011;34422;45.802;16.114;2022-07-21T07:07:29;11.73;;;4.10;;
48623;SDS011;34422;45.802;16.114;2022-07-21T07:09:56;9.90;;;3.80;;
48623;SDS011;34422;45.802;16.114;2022-07-21T07:12:25;12.98;;;4.22;;
48623;SDS011;34422;45.802;16.114;2022-07-21T07:14:52;16.38;;;5.00;;
48623;SDS011;34422;45.802;16.114;2022-07-21T07:17:19;14.02;;;4.60;;
48623;SDS011;34422;45.802;16.114;2022-07-21T07:19:46;12.55;;;3.78;;
48623;SDS011;34422;45.802;16.114;2022-07-21T07:22:13;17.15;;;4.43;;
48623;SDS011;34422;45.802;16.114;2022-07-21T07:24:40;10.15;;;4.45;;
48623;SDS011;34422;45.802;16.114;2022-07-21T07:27:07;9.70;;;3.92;;
48623;SDS011;34422;45.802;16.114;2022-07-21T07:29:34;12.10;;;3.80;;
48623;SDS011;34422;45.802;16.114;2022-07-21T07:32:00;14.93;;;4.32;;
48623;SDS011;34422;45.802;16.114;2022-07-21T07:34:27;11.15;;;4.40;;
48623;SDS011;34422;45.802;16.114;2022-07-21T07:36:54;14.10;;;3.40;;
48623;SDS011;34422;45.802;16.114;2022-07-21T07:39:21;14.85;;;3.88;;
48623;SDS011;34422;45.802;16.114;2022-07-21T07:41:47;17.02;;;6.55;;
48623;SDS011;34422;45.802;16.114;2022-07-21T07:44:14;15.27;;;3.97;;
48623;SDS011;34422;45.802;16.114;2022-07-21T07:46:41;16.98;;;3.85;;
48623;SDS011;34422;45.802;16.114;2022-07-21T07:49:08;11.48;;;3.95;;
48623;SDS011;34422;45.802;16.114;2022-07-21T07:51:35;12.65;;;4.22;;
48623;SDS011;34422;45.802;16.114;2022-07-21T07:54:02;11.68;;;3.50;;
48623;SDS011;34422;45.802;16.114;2022-07-21T07:56:30;10.07;;;3.90;;
48623;SDS011;34422;45.802;16.114;2022-07-21T07:58:57;15.20;;;4.07;;
48623;SDS011;34422;45.802;16.114;2022-07-21T08:01:25;12.45;;;3.08;;
48623;SDS011;34422;45.802;16.114;2022-07-21T08:03:51;8.02;;;3.72;;
48623;SDS011;34422;45.802;16.114;2022-07-21T08:06:18;9.40;;;3.00;;
48623;SDS011;34422;45.802;16.114;2022-07-21T08:08:45;9.48;;;3.38;;
48623;SDS011;34422;45.802;16.114;2022-07-21T08:11:12;9.18;;;3.20;;
48623;SDS011;34422;45.802;16.114;2022-07-21T08:13:39;6.47;;;3.35;;
48623;SDS011;34422;45.802;16.114;2022-07-21T08:16:06;7.93;;;3.05;;
48623;SDS011;34422;45.802;16.114;2022-07-21T08:18:33;14.75;;;3.72;;
48623;SDS011;34422;45.802;16.114;2022-07-21T08:21:01;10.95;;;2.78;;
48623;SDS011;34422;45.802;16.114;2022-07-21T08:23:27;11.77;;;3.58;;
48623;SDS011;34422;45.802;16.114;2022-07-21T08:25:56;11.48;;;3.13;;
48623;SDS011;34422;45.802;16.114;2022-07-21T08:28:23;10.07;;;3.25;;
48623;SDS011;34422;45.802;16.114;2022-07-21T08:30:51;8.43;;;2.47;;
48623;SDS011;34422;45.802;16.114;2022-07-21T08:33:18;8.20;;;2.85;;
48623;SDS011;34422;45.802;16.114;2022-07-21T08:35:45;8.00;;;2.40;;
48623;SDS011;34422;45.802;16.114;2022-07-21T08:38:11;6.30;;;2.53;;
48623;SDS011;34422;45.802;16.114;2022-07-21T08:40:39;8.98;;;2.72;;
48623;SDS011;34422;45.802;16.114;2022-07-21T08:43:09;8.65;;;3.17;;
48623;SDS011;34422;45.802;16.114;2022-07-21T08:45:38;9.85;;;3.17;;
48623;SDS011;34422;45.802;16.114;2022-07-21T08:48:07;10.25;;;2.70;;
48623;SDS011;34422;45.802;16.114;2022-07-21T08:50:35;9.38;;;2.88;;
48623;SDS011;34422;45.802;16.114;2022-07-21T08:53:04;7.72;;;2.78;;
48623;SDS011;34422;45.802;16.114;2022-07-21T08:55:33;7.97;;;2.65;;
48623;SDS011;34422;45.802;16.114;2022-07-21T08:58:02;6.88;;;2.20;;
48623;SDS011;34422;45.802;16.114;2022-07-21T09:00:31;9.52;;;2.47;;
48623;SDS011;34422;45.802;16.114;2022-07-21T09:03:11;14.82;;;2.65;;
48623;SDS011;34422;45.802;16.114;2022-07-21T09:05:41;11.07;;;3.28;;
48623;SDS011;34422;45.802;16.114;2022-07-21T09:08:09;14.13;;;3.30;;
48623;SDS011;34422;45.802;16.114;2022-07-21T09:10:36;18.35;;;3.88;;
48623;SDS011;34422;45.802;16.114;2022-07-21T09:13:04;9.35;;;2.90;;
48623;SDS011;34422;45.802;16.114;2022-07-21T09:15:33;8.68;;;2.67;;
48623;SDS011;34422;45.802;16.114;2022-07-21T09:20:33;17.70;;;3.00;;
48623;SDS011;34422;45.802;16.114;2022-07-21T09:25:44;6.20;;;2.13;;
48623;SDS011;34422;45.802;16.114;2022-07-21T09:28:23;5.68;;;2.17;;
48623;SDS011;34422;45.802;16.114;2022-07-21T09:31:01;7.75;;;2.35;;
48623;SDS011;34422;45.802;16.114;2022-07-21T09:35:59;7.60;;;2.20;;
48623;SDS011;34422;45.802;16.114;2022-07-21T09:38:33;6.85;;;2.20;;
48623;SDS011;34422;45.802;16.114;2022-07-21T09:41:05;6.57;;;2.33;;
48623;SDS011;34422;45.802;16.114;2022-07-21T09:43:36;9.30;;;2.67;;
48623;SDS011;34422;45.802;16.114;2022-07-21T09:46:09;7.80;;;2.65;;
48623;SDS011;34422;45.802;16.114;2022-07-21T09:48:42;9.65;;;3.10;;
48623;SDS011;34422;45.802;16.114;2022-07-21T09:51:20;9.93;;;2.75;;
48623;SDS011;34422;45.802;16.114;2022-07-21T09:56:33;10.88;;;3.30;;
48623;SDS011;34422;45.802;16.114;2022-07-21T09:59:02;9.30;;;3.15;;
48623;SDS011;34422;45.802;16.114;2022-07-21T10:01:30;11.18;;;2.97;;
48623;SDS011;34422;45.802;16.114;2022-07-21T10:03:59;6.63;;;2.70;;
48623;SDS011;34422;45.802;16.114;2022-07-21T10:06:30;8.27;;;2.67;;
48623;SDS011;34422;45.802;16.114;2022-07-21T10:09:00;11.70;;;3.13;;
48623;SDS011;34422;45.802;16.114;2022-07-21T10:11:29;9.23;;;3.10;;
48623;SDS011;34422;45.802;16.114;2022-07-21T10:13:57;9.85;;;2.85;;
48623;SDS011;34422;45.802;16.114;2022-07-21T10:16:24;9.73;;;2.75;;
48623;SDS011;34422;45.802;16.114;2022-07-21T10:18:54;10.20;;;2.50;;
48623;SDS011;34422;45.802;16.114;2022-07-21T10:24:10;7.95;;;2.13;;
48623;SDS011;34422;45.802;16.114;2022-07-21T10:26:38;6.97;;;2.60;;
48623;SDS011;34422;45.802;16.114;2022-07-21T10:32:14;7.03;;;2.65;;
48623;SDS011;34422;45.802;16.114;2022-07-21T10:34:42;4.40;;;2.33;;
48623;SDS011;34422;45.802;16.114;2022-07-21T10:37:18;4.55;;;2.00;;
48623;SDS011;34422;45.802;16.114;2022-07-21T10:42:39;7.93;;;2.67;;
48623;SDS011;34422;45.802;16.114;2022-07-21T10:45:19;9.25;;;2.17;;
48623;SDS011;34422;45.802;16.114;2022-07-21T10:48:00;5.47;;;2.28;;
48623;SDS011;34422;45.802;16.114;2022-07-21T10:50:32;8.38;;;2.65;;
48623;SDS011;34422;45.802;16.114;2022-07-21T10:53:16;4.72;;;2.65;;
48623;SDS011;34422;45.802;16.114;2022-07-21T10:55:49;6.57;;;2.60;;
48623;SDS011;34422;45.802;16.114;2022-07-21T11:03:41;7.03;;;2.50;;
48623;SDS011;34422;45.802;16.114;2022-07-21T11:06:12;7.23;;;2.83;;
48623;SDS011;34422;45.802;16.114;2022-07-21T11:14:41;6.53;;;2.67;;
48623;SDS011;34422;45.802;16.114;2022-07-21T11:17:29;8.57;;;3.15;;
48623;SDS011;34422;45.802;16.114;2022-07-21T11:19:57;8.20;;;3.05;;
48623;SDS011;34422;45.802;16.114;2022-07-21T11:22:25;7.30;;;3.30;;
48623;SDS011;34422;45.802;16.114;2022-07-21T11:24:57;5.75;;;3.00;;
48623;SDS011;34422;45.802;16.114;2022-07-21T11:27:28;8.57;;;3.15;;
48623;SDS011;34422;45.802;16.114;2022-07-21T11:29:57;9.52;;;3.10;;
48623;SDS011;34422;45.802;16.114;2022-07-21T11:32:26;8.20;;;2.85;;
48623;SDS011;34422;45.802;16.114;2022-07-21T11:37:36;8.57;;;3.20;;
48623;SDS011;34422;45.802;16.114;2022-07-21T11:42:34;7.38;;;3.20;;
48623;SDS011;34422;45.802;16.114;2022-07-21T11:45:02;4.68;;;2.80;;
48623;SDS011;34422;45.802;16.114;2022-07-21T11:47:30;6.45;;;2.80;;
48623;SDS011;34422;45.802;16.114;2022-07-21T11:49:58;4.97;;;2.72;;
48623;SDS011;34422;45.802;16.114;2022-07-21T11:52:28;8.23;;;2.47;;
48623;SDS011;34422;45.802;16.114;2022-07-21T11:54:57;8.00;;;2.63;;
48623;SDS011;34422;45.802;16.114;2022-07-21T11:57:25;5.57;;;2.80;;
48623;SDS011;34422;45.802;16.114;2022-07-21T11:59:53;6.88;;;2.67;;
48623;SDS011;34422;45.802;16.114;2022-07-21T12:02:30;7.68;;;2.72;;
48623;SDS011;34422;45.802;16.114;2022-07-21T12:05:05;6.95;;;2.60;;
48623;SDS011;34422;45.802;16.114;2022-07-21T12:07:42;8.93;;;3.00;;
48623;SDS011;34422;45.802;16.114;2022-07-21T12:10:20;6.55;;;2.65;;
48623;SDS011;34422;45.802;16.114;2022-07-21T12:12:49;4.72;;;2.38;;
48623;SDS011;34422;45.802;16.114;2022-07-21T12:15:22;6.03;;;2.80;;
48623;SDS011;34422;45.802;16.114;2022-07-21T12:17:55;8.95;;;2.78;;
48623;SDS011;34422;45.802;16.114;2022-07-21T12:20:27;6.20;;;2.67;;
48623;SDS011;34422;45.802;16.114;2022-07-21T12:23:00;5.50;;;2.40;;
48623;SDS011;34422;45.802;16.114;2022-07-21T12:27:59;5.90;;;2.50;;
48623;SDS011;34422;45.802;16.114;2022-07-21T12:30:29;7.57;;;2.78;;
48623;SDS011;34422;45.802;16.114;2022-07-21T12:33:04;6.22;;;2.50;;
48623;SDS011;34422;45.802;16.114;2022-07-21T12:35:39;11.68;;;3.03;;
48623;SDS011;34422;45.802;16.114;2022-07-21T12:38:11;8.05;;;2.55;;
48623;SDS011;34422;45.802;16.114;2022-07-21T12:40:43;5.47;;;2.88;;
48623;SDS011;34422;45.802;16.114;2022-07-21T12:45:54;5.22;;;2.45;;
48623;SDS011;34422;45.802;16.114;2022-07-21T12:48:30;5.03;;;2.65;;
48623;SDS011;34422;45.802;16.114;2022-07-21T12:53:28;4.50;;;2.13;;
48623;SDS011;34422;45.802;16.114;2022-07-21T12:55:56;7.03;;;2.20;;
48623;SDS011;34422;45.802;16.114;2022-07-21T12:58:24;7.85;;;2.15;;
48623;SDS011;34422;45.802;16.114;2022-07-21T13:00:51;9.32;;;2.70;;
48623;SDS011;34422;45.802;16.114;2022-07-21T13:03:17;4.65;;;2.65;;
48623;SDS011;34422;45.802;16.114;2022-07-21T13:05:45;6.20;;;2.95;;
48623;SDS011;34422;45.802;16.114;2022-07-21T13:08:12;7.45;;;2.60;;
48623;SDS011;34422;45.802;16.114;2022-07-21T13:10:39;4.38;;;2.63;;
48623;SDS011;34422;45.802;16.114;2022-07-21T13:13:06;7.88;;;2.70;;
48623;SDS011;34422;45.802;16.114;2022-07-21T13:15:32;4.82;;;1.98;;
48623;SDS011;34422;45.802;16.114;2022-07-21T13:17:59;8.98;;;4.03;;
48623;SDS011;34422;45.802;16.114;2022-07-21T13:20:26;6.68;;;2.60;;
48623;SDS011;34422;45.802;16.114;2022-07-21T13:22:52;6.90;;;2.67;;
48623;SDS011;34422;45.802;16.114;2022-07-21T13:25:19;5.38;;;2.60;;
48623;SDS011;34422;45.802;16.114;2022-07-21T13:27:46;4.97;;;2.55;;
48623;SDS011;34422;45.802;16.114;2022-07-21T13:30:13;5.03;;;2.22;;
48623;SDS011;34422;45.802;16.114;2022-07-21T13:32:41;6.47;;;2.50;;
48623;SDS011;34422;45.802;16.114;2022-07-21T13:35:08;9.85;;;2.88;;
48623;SDS011;34422;45.802;16.114;2022-07-21T13:37:35;7.63;;;2.30;;
48623;SDS011;34422;45.802;16.114;2022-07-21T13:40:02;5.22;;;2.17;;
48623;SDS011;34422;45.802;16.114;2022-07-21T13:42:30;5.73;;;2.10;;
48623;SDS011;34422;45.802;16.114;2022-07-21T13:44:57;7.22;;;2.08;;
48623;SDS011;34422;45.802;16.114;2022-07-21T13:47:25;4.15;;;2.00;;
48623;SDS011;34422;45.802;16.114;2022-07-21T13:49:52;5.03;;;2.42;;
48623;SDS011;34422;45.802;16.114;2022-07-21T13:52:19;7.75;;;2.17;;
48623;SDS011;34422;45.802;16.114;2022-07-21T13:54:46;4.40;;;2.28;;
48623;SDS011;34422;45.802;16.114;2022-07-21T13:57:13;5.18;;;1.90;;
48623;SDS011;34422;45.802;16.114;2022-07-21T13:59:39;6.50;;;2.45;;
48623;SDS011;34422;45.802;16.114;2022-07-21T14:02:07;4.80;;;2.20;;
48623;SDS011;34422;45.802;16.114;2022-07-21T14:04:34;5.50;;;2.50;;
48623;SDS011;34422;45.802;16.114;2022-07-21T14:07:01;6.68;;;2.28;;
48623;SDS011;34422;45.802;16.114;2022-07-21T14:09:28;6.25;;;2.33;;
48623;SDS011;34422;45.802;16.114;2022-07-21T14:11:55;4.32;;;2.10;;
48623;SDS011;34422;45.802;16.114;2022-07-21T14:14:23;5.75;;;2.30;;
48623;SDS011;34422;45.802;16.114;2022-07-21T14:19:20;4.45;;;1.80;;
48623;SDS011;34422;45.802;16.114;2022-07-21T14:21:47;4.57;;;2.35;;
48623;SDS011;34422;45.802;16.114;2022-07-21T14:24:15;6.55;;;2.33;;
48623;SDS011;34422;45.802;16.114;2022-07-21T14:27:00;4.05;;;2.00;;
48623;SDS011;34422;45.802;16.114;2022-07-21T14:29:28;9.02;;;2.47;;
48623;SDS011;34422;45.802;16.114;2022-07-21T14:31:54;6.70;;;2.15;;
48623;SDS011;34422;45.802;16.114;2022-07-21T14:34:21;4.38;;;2.28;;
48623;SDS011;34422;45.802;16.114;2022-07-21T14:36:48;5.45;;;2.00;;
48623;SDS011;34422;45.802;16.114;2022-07-21T14:39:15;5.95;;;2.20;;
48623;SDS011;34422;45.802;16.114;2022-07-21T14:41:43;4.05;;;2.10;;
48623;SDS011;34422;45.802;16.114;2022-07-21T14:44:11;4.35;;;2.13;;
48623;SDS011;34422;45.802;16.114;2022-07-21T14:46:39;6.22;;;2.45;;
48623;SDS011;34422;45.802;16.114;2022-07-21T14:49:05;4.13;;;2.35;;
48623;SDS011;34422;45.802;16.114;2022-07-21T14:51:32;3.83;;;2.22;;
48623;SDS011;34422;45.802;16.114;2022-07-21T14:53:59;6.03;;;2.20;;
48623;SDS011;34422;45.802;16.114;2022-07-21T14:56:26;4.80;;;2.22;;
48623;SDS011;34422;45.802;16.114;2022-07-21T14:58:53;4.22;;;2.33;;
48623;SDS011;34422;45.802;16.114;2022-07-21T15:01:19;4.78;;;2.25;;
48623;SDS011;34422;45.802;16.114;2022-07-21T15:03:46;5.90;;;1.85;;
48623;SDS011;34422;45.802;16.114;2022-07-21T15:06:13;6.38;;;1.95;;
48623;SDS011;34422;45.802;16.114;2022-07-21T15:08:39;6.00;;;2.33;;
48623;SDS011;34422;45.802;16.114;2022-07-21T15:11:06;4.15;;;2.15;;
48623;SDS011;34422;45.802;16.114;2022-07-21T15:13:33;4.95;;;2.10;;
48623;SDS011;34422;45.802;16.114;2022-07-21T15:15:59;4.90;;;2.25;;
48623;SDS011;34422;45.802;16.114;2022-07-21T15:18:26;4.22;;;2.13;;
48623;SDS011;34422;45.802;16.114;2022-07-21T15:20:53;4.57;;;2.20;;
48623;SDS011;34422;45.802;16.114;2022-07-21T15:23:20;4.75;;;2.20;;
48623;SDS011;34422;45.802;16.114;2022-07-21T15:25:46;6.13;;;1.80;;